createdAt,value
2022-10-01T00:01:11.361Z,95923.75
2022-10-01T00:03:40.030Z,95925.19
2022-10-01T00:06:10.443Z,95924.03
2022-10-01T00:08:39.483Z,95922.50
2022-10-01T00:11:12.352Z,95931.56
2022-10-01T00:13:42.941Z,95931.69
2022-10-01T00:16:12.957Z,95926.97
2022-10-01T00:18:42.442Z,95932.69
2022-10-01T00:21:12.190Z,95933.16
2022-10-01T00:23:39.964Z,95931.31
2022-10-01T00:26:13.568Z,95944.84
2022-10-01T00:28:43.079Z,95936.16
2022-10-01T00:31:11.393Z,95939.66
2022-10-01T00:33:40.094Z,95935.66
2022-10-01T00:36:08.748Z,95930.47
2022-10-01T00:38:37.817Z,95934.09
2022-10-01T00:41:06.105Z,95928.59
2022-10-01T00:43:35.545Z,95931.13
2022-10-01T00:46:10.756Z,95941.81
2022-10-01T00:48:47.692Z,95938.06
2022-10-01T00:51:15.473Z,95937.88
2022-10-01T00:53:44.551Z,95932.88
2022-10-01T00:56:12.132Z,95934.22
2022-10-01T00:58:39.628Z,95938.19
2022-10-01T01:01:08.757Z,95944.56
2022-10-01T01:03:36.350Z,95937.88
2022-10-01T01:06:04.773Z,95940.56
2022-10-01T01:08:32.424Z,95934.22
2022-10-01T01:11:08.342Z,95940.31
2022-10-01T01:13:42.294Z,95929.19
2022-10-01T01:16:16.916Z,95933.03
2022-10-01T01:18:52.119Z,95924.91
2022-10-01T01:21:24.866Z,95926.56
2022-10-01T01:24:22.916Z,95930.09
2022-10-01T01:27:03.409Z,95929.88
2022-10-01T01:29:39.695Z,95928.56
2022-10-01T01:32:15.014Z,95919.59
2022-10-01T01:34:46.392Z,95923.75
2022-10-01T01:37:18.348Z,95908.00
2022-10-01T01:39:51.767Z,95907.19
2022-10-01T01:42:24.667Z,95918.94
2022-10-01T01:44:58.099Z,95905.72
2022-10-01T01:47:28.601Z,95907.38
2022-10-01T01:49:57.412Z,95906.06
2022-10-01T01:52:25.224Z,95910.03
2022-10-01T01:54:53.021Z,95912.66
2022-10-01T01:57:21.668Z,95912.34
2022-10-01T01:59:49.424Z,95901.78
2022-10-01T02:02:23.395Z,95905.72
2022-10-01T02:04:55.520Z,95900.81
2022-10-01T02:07:38.628Z,95895.66
2022-10-01T02:10:18.252Z,95907.78
2022-10-01T02:12:56.457Z,95901.47
2022-10-01T02:15:28.771Z,95899.16
2022-10-01T02:18:03.226Z,95909.41
2022-10-01T02:20:36.767Z,95902.63
2022-10-01T02:23:10.010Z,95909.25
2022-10-01T02:25:41.496Z,95903.94
2022-10-01T02:28:12.812Z,95907.59
2022-10-01T02:30:44.191Z,95897.97
2022-10-01T02:33:16.312Z,95908.59
2022-10-01T02:35:45.908Z,95903.94
2022-10-01T02:38:15.169Z,95897.50
2022-10-01T02:40:45.757Z,95903.47
2022-10-01T02:43:18.519Z,95903.13
2022-10-01T02:45:52.347Z,95895.16
2022-10-01T02:48:21.280Z,95890.53
2022-10-01T02:50:52.263Z,95898.31
2022-10-01T02:53:24.326Z,95888.38
2022-10-01T02:55:53.608Z,95887.22
2022-10-01T02:58:21.050Z,95892.66
2022-10-01T03:00:48.607Z,95888.38
2022-10-01T03:03:16.224Z,95889.22
2022-10-01T03:05:45.066Z,95881.88
2022-10-01T03:08:12.640Z,95884.81
2022-10-01T03:10:42.454Z,95884.22
2022-10-01T03:13:13.552Z,95885.84
2022-10-01T03:15:41.167Z,95884.53
2022-10-01T03:18:08.736Z,95879.84
2022-10-01T03:20:36.249Z,95884.31
2022-10-01T03:23:05.119Z,95886.66
2022-10-01T03:25:32.629Z,95889.03
2022-10-01T03:28:00.871Z,95894.06
2022-10-01T03:30:28.489Z,95893.84
2022-10-01T03:32:55.998Z,95889.72
2022-10-01T03:35:24.919Z,95874.00
2022-10-01T03:37:52.954Z,95882.03
2022-10-01T03:40:21.802Z,95878.44
2022-10-01T03:42:50.075Z,95865.38
2022-10-01T03:45:17.761Z,95862.91
2022-10-01T03:47:45.260Z,95855.44
2022-10-01T03:50:12.761Z,95849.28
2022-10-01T03:52:41.525Z,95850.47
2022-10-01T03:55:09.770Z,95845.34
2022-10-01T03:57:38.720Z,95853.09
2022-10-01T04:00:06.801Z,95849.00
2022-10-01T04:02:34.415Z,95856.75
2022-10-01T04:05:02.001Z,95843.84
2022-10-01T04:07:29.851Z,95844.81
2022-10-01T04:09:57.337Z,95843.13
2022-10-01T04:12:24.835Z,95844.81
2022-10-01T04:14:53.643Z,95851.06
2022-10-01T04:17:21.127Z,95846.69
2022-10-01T04:19:48.620Z,95851.41
2022-10-01T04:22:16.114Z,95852.06
2022-10-01T04:24:43.618Z,95839.84
2022-10-01T04:27:11.136Z,95842.53
2022-10-01T04:29:40.357Z,95840.66
2022-10-01T04:32:09.444Z,95836.22
2022-10-01T04:34:55.378Z,95839.47
2022-10-01T04:37:24.183Z,95829.88
2022-10-01T04:39:51.707Z,95839.44
2022-10-01T04:42:19.235Z,95825.91
2022-10-01T04:44:46.733Z,95841.75
2022-10-01T04:47:15.692Z,95838.03
2022-10-01T04:49:43.197Z,95847.59
2022-10-01T04:52:10.693Z,95840.28
2022-10-01T04:54:38.196Z,95847.56
2022-10-01T04:57:05.694Z,95849.81
2022-10-01T04:59:33.229Z,95855.22
2022-10-01T05:02:00.783Z,95854.88
2022-10-01T05:04:29.683Z,95857.50
2022-10-01T05:06:57.144Z,95850.94
2022-10-01T05:09:24.753Z,95853.16
2022-10-01T05:11:52.531Z,95858.97
2022-10-01T05:14:21.160Z,95849.72
2022-10-01T05:16:48.725Z,95854.34
2022-10-01T05:19:16.256Z,95857.75
2022-10-01T05:21:45.820Z,95853.97
2022-10-01T05:24:13.348Z,95855.56
2022-10-01T05:26:40.843Z,95857.03
2022-10-01T05:29:08.337Z,95842.84
2022-10-01T05:31:36.172Z,95854.78
2022-10-01T05:34:03.902Z,95852.94
2022-10-01T05:36:31.397Z,95853.78
2022-10-01T05:39:00.253Z,95845.31
2022-10-01T05:41:28.136Z,95841.50
2022-10-01T05:43:55.658Z,95844.78
2022-10-01T05:46:23.188Z,95848.66
2022-10-01T05:48:51.266Z,95848.81
2022-10-01T05:51:19.091Z,95847.41
2022-10-01T05:53:50.494Z,95861.00
2022-10-01T05:56:19.548Z,95864.22
2022-10-01T05:58:47.064Z,95859.97
2022-10-01T06:01:14.788Z,95862.66
2022-10-01T06:03:42.871Z,95859.50
2022-10-01T06:06:10.435Z,95860.16
2022-10-01T06:08:38.592Z,95857.88
2022-10-01T06:11:06.375Z,95865.16
2022-10-01T06:13:36.701Z,95856.03
2022-10-01T06:16:04.483Z,95849.91
2022-10-01T06:18:32.100Z,95860.94
2022-10-01T06:21:00.575Z,95864.38
2022-10-01T06:23:28.084Z,95860.53
2022-10-01T06:25:55.607Z,95859.88
2022-10-01T06:28:23.239Z,95864.28
2022-10-01T06:30:52.131Z,95864.44
2022-10-01T06:33:20.195Z,95867.19
2022-10-01T06:35:49.083Z,95863.41
2022-10-01T06:38:18.089Z,95857.94
2022-10-01T06:40:45.724Z,95858.38
2022-10-01T06:43:13.250Z,95855.97
2022-10-01T06:45:42.860Z,95858.84
2022-10-01T06:48:15.083Z,95851.72
2022-10-01T06:50:43.491Z,95849.19
2022-10-01T06:53:11.695Z,95855.19
2022-10-01T06:55:39.488Z,95857.31
2022-10-01T06:58:08.981Z,95857.75
2022-10-01T07:00:39.011Z,95857.75
2022-10-01T07:03:10.724Z,95852.69
2022-10-01T07:05:40.413Z,95856.84
2022-10-01T07:08:08.715Z,95851.81
2022-10-01T07:10:37.419Z,95852.00
2022-10-01T07:13:09.572Z,95845.16
2022-10-01T07:15:37.825Z,95842.31
2022-10-01T07:18:06.054Z,95834.72
2022-10-01T07:20:35.949Z,95834.88
2022-10-01T07:23:04.828Z,95841.06
2022-10-01T07:25:32.542Z,95829.69
2022-10-01T07:28:02.641Z,95846.28
2022-10-01T07:30:30.152Z,95842.00
2022-10-01T07:32:57.952Z,95845.16
2022-10-01T07:35:26.147Z,95849.91
2022-10-01T07:37:55.182Z,95846.22
2022-10-01T07:40:24.078Z,95841.00
2022-10-01T07:42:55.728Z,95835.63
2022-10-01T07:45:24.294Z,95837.16
2022-10-01T07:47:55.795Z,95835.88
2022-10-01T07:50:24.260Z,95830.53
2022-10-01T07:52:53.611Z,95831.75
2022-10-01T07:55:21.674Z,95818.31
2022-10-01T07:57:54.089Z,95821.09
2022-10-01T08:00:22.664Z,95818.59
2022-10-01T08:02:51.610Z,95822.63
2022-10-01T08:05:20.410Z,95810.00
2022-10-01T08:07:48.659Z,95814.63
2022-10-01T08:10:18.440Z,95808.91
2022-10-01T08:12:46.563Z,95805.06
2022-10-01T08:15:17.357Z,95806.38
2022-10-01T08:17:45.802Z,95793.81
2022-10-01T08:20:14.824Z,95793.84
2022-10-01T08:22:42.637Z,95797.22
2022-10-01T08:25:10.958Z,95789.75
2022-10-01T08:27:38.516Z,95788.31
2022-10-01T08:30:07.021Z,95792.59
2022-10-01T08:32:35.908Z,95791.94
2022-10-01T08:35:04.983Z,95795.75
2022-10-01T08:37:32.520Z,95800.84
2022-10-01T08:40:00.067Z,95803.97
2022-10-01T08:42:44.818Z,95791.25
2022-10-01T08:45:15.859Z,95797.03
2022-10-01T08:47:49.364Z,95796.38
2022-10-01T08:50:37.244Z,95795.13
2022-10-01T08:53:08.143Z,95793.47
2022-10-01T08:55:37.599Z,95802.41
2022-10-01T08:58:07.518Z,95799.34
2022-10-01T09:00:39.746Z,95806.91
2022-10-01T09:03:14.329Z,95814.50
2022-10-01T09:05:53.223Z,95814.38
2022-10-01T09:08:43.733Z,95810.09
2022-10-01T09:11:21.918Z,95821.34
2022-10-01T09:14:00.735Z,95811.56
2022-10-01T09:16:36.441Z,95817.31
2022-10-01T09:19:18.997Z,95836.03
2022-10-01T09:21:57.087Z,95828.97
2022-10-01T09:24:40.549Z,95826.47
2022-10-01T09:27:14.580Z,95833.56
2022-10-01T09:29:46.927Z,95831.00
2022-10-01T09:32:17.764Z,95834.41
2022-10-01T09:34:46.617Z,95830.25
2022-10-01T09:37:24.469Z,95827.06
2022-10-01T09:40:01.546Z,95815.66
2022-10-01T09:42:30.870Z,95820.97
2022-10-01T09:44:58.957Z,95811.19
2022-10-01T09:47:26.708Z,95816.44
2022-10-01T09:49:56.940Z,95810.34
2022-10-01T09:52:29.023Z,95810.88
2022-10-01T09:55:00.824Z,95811.75
2022-10-01T09:57:33.607Z,95807.00
2022-10-01T10:00:09.944Z,95808.88
2022-10-01T10:02:45.994Z,95804.66
2022-10-01T10:05:20.120Z,95803.66
2022-10-01T10:07:51.452Z,95799.06
2022-10-01T10:10:25.562Z,95789.03
2022-10-01T10:12:57.203Z,95796.34
2022-10-01T10:15:26.377Z,95787.06
2022-10-01T10:17:55.634Z,95791.44
2022-10-01T10:20:33.471Z,95784.91
2022-10-01T10:23:08.439Z,95782.25
2022-10-01T10:25:36.002Z,95787.09
2022-10-01T10:28:05.085Z,95778.38
2022-10-01T10:30:34.323Z,95779.44
2022-10-01T10:33:08.117Z,95770.56
2022-10-01T10:35:37.147Z,95784.19
2022-10-01T10:38:05.233Z,95773.97
2022-10-01T10:40:43.318Z,95770.66
2022-10-01T10:43:19.159Z,95768.19
2022-10-01T10:45:46.852Z,95769.00
2022-10-01T10:48:19.994Z,95765.84
2022-10-01T10:50:48.892Z,95753.19
2022-10-01T10:53:21.970Z,95750.28
2022-10-01T10:55:58.269Z,95751.03
2022-10-01T10:58:27.697Z,95749.69
2022-10-01T11:00:58.441Z,95748.53
2022-10-01T11:03:29.103Z,95750.97
2022-10-01T11:06:03.946Z,95752.38
2022-10-01T11:08:32.438Z,95747.44
2022-10-01T11:11:14.305Z,95746.53
2022-10-01T11:14:00.740Z,95745.22
2022-10-01T11:16:43.925Z,95743.91
2022-10-01T11:19:34.667Z,95734.91
2022-10-01T11:22:18.489Z,95737.09
2022-10-01T11:25:04.621Z,95724.44
2022-10-01T11:27:40.853Z,95732.06
2022-10-01T11:30:11.843Z,95736.31
2022-10-01T11:32:42.394Z,95731.81
2022-10-01T11:35:49.257Z,95729.25
2022-10-01T11:38:43.682Z,95723.16
2022-10-01T11:41:21.467Z,95727.75
2022-10-01T11:43:53.792Z,95724.88
2022-10-01T11:46:33.659Z,95722.66
2022-10-01T11:49:09.927Z,95718.66
2022-10-01T11:51:45.157Z,95716.53
2022-10-01T11:54:19.660Z,95740.66
2022-10-01T11:57:08.650Z,95723.38
2022-10-01T11:59:41.643Z,95698.88
2022-10-01T12:02:19.063Z,95701.22
2022-10-01T12:04:53.560Z,95710.75
2022-10-01T12:07:26.983Z,95695.00
2022-10-01T12:10:02.493Z,95700.69
2022-10-01T12:12:35.164Z,95702.63
2022-10-01T12:15:09.718Z,95716.41
2022-10-01T12:17:43.015Z,95707.09
2022-10-01T12:20:21.336Z,95705.09
2022-10-01T12:22:49.772Z,95727.13
2022-10-01T12:25:21.170Z,95736.00
2022-10-01T12:27:59.418Z,95732.97
2022-10-01T12:30:31.866Z,95737.28
2022-10-01T12:33:16.957Z,95751.28
2022-10-01T12:35:58.915Z,95745.44
2022-10-01T12:38:40.743Z,95734.78
2022-10-01T12:41:25.376Z,95718.03
2022-10-01T12:44:14.020Z,95744.28
2022-10-01T12:46:51.517Z,95736.72
2022-10-01T12:49:27.566Z,95727.06
2022-10-01T12:52:05.299Z,95719.31
2022-10-01T12:54:57.456Z,95733.69
2022-10-01T12:57:39.872Z,95726.34
2022-10-01T13:00:12.417Z,95730.31
2022-10-01T13:03:13.695Z,95725.50
2022-10-01T13:05:52.610Z,95734.50
2022-10-01T13:08:33.666Z,95733.47
2022-10-01T13:11:07.524Z,95721.34
2022-10-01T13:13:38.195Z,95716.56
2022-10-01T13:16:11.660Z,95726.81
2022-10-01T13:18:50.810Z,95721.63
2022-10-01T13:21:29.229Z,95719.09
2022-10-01T13:24:01.942Z,95719.06
2022-10-01T13:26:35.144Z,95727.13
2022-10-01T13:29:19.979Z,95715.56
2022-10-01T13:31:57.782Z,95714.78
2022-10-01T13:34:33.542Z,95720.03
2022-10-01T13:37:11.524Z,95716.28
2022-10-01T13:39:41.949Z,95720.44
2022-10-01T13:42:20.211Z,95724.47
2022-10-01T13:44:53.950Z,95722.91
2022-10-01T13:47:22.394Z,95733.41
2022-10-01T13:49:58.606Z,95736.88
2022-10-01T13:52:26.351Z,95735.69
2022-10-01T13:54:56.164Z,95729.06
2022-10-01T13:57:29.949Z,95738.44
2022-10-01T14:00:07.124Z,95737.06
2022-10-01T14:02:37.061Z,95751.63
2022-10-01T14:05:28.148Z,95750.72
2022-10-01T14:08:00.023Z,95754.44
2022-10-01T14:10:57.208Z,95756.31
2022-10-01T14:13:43.292Z,95760.28
2022-10-01T14:16:12.732Z,95746.72
2022-10-01T14:18:43.623Z,95759.19
2022-10-01T14:21:29.889Z,95761.56
2022-10-01T14:24:05.210Z,95768.25
2022-10-01T14:26:43.080Z,95776.41
2022-10-01T14:29:22.979Z,95755.31
2022-10-01T14:32:02.437Z,95758.34
2022-10-01T14:34:48.689Z,95765.56
2022-10-01T14:37:18.484Z,95747.16
2022-10-01T14:39:46.582Z,95761.66
2022-10-01T14:42:17.530Z,95751.56
2022-10-01T14:44:46.695Z,95749.53
2022-10-01T14:47:20.419Z,95752.84
2022-10-01T14:49:49.199Z,95754.09
2022-10-01T14:52:23.133Z,95754.63
2022-10-01T14:54:54.023Z,95752.25
2022-10-01T14:57:29.626Z,95751.09
2022-10-01T14:59:59.595Z,95763.28
2022-10-01T15:02:29.458Z,95744.03
2022-10-01T15:04:58.295Z,95751.44
2022-10-01T15:07:29.058Z,95741.09
2022-10-01T15:10:07.129Z,95746.34
2022-10-01T15:12:40.218Z,95736.31
2022-10-01T15:15:18.756Z,95744.00
2022-10-01T15:17:48.548Z,95743.75
2022-10-01T15:20:17.584Z,95740.66
2022-10-01T15:22:48.023Z,95749.06
2022-10-01T15:25:20.965Z,95747.63
2022-10-01T15:27:49.641Z,95741.03
2022-10-01T15:30:19.250Z,95748.25
2022-10-01T15:32:49.733Z,95738.72
2022-10-01T15:35:20.791Z,95745.25
2022-10-01T15:37:50.543Z,95752.22
2022-10-01T15:40:30.070Z,95753.88
2022-10-01T15:43:26.219Z,95756.88
2022-10-01T15:46:10.484Z,95751.84
2022-10-01T15:48:39.421Z,95763.97
2022-10-01T15:51:15.927Z,95748.75
2022-10-01T15:53:43.651Z,95741.47
2022-10-01T15:56:14.605Z,95755.59
2022-10-01T15:58:48.403Z,95752.81
2022-10-01T16:01:22.147Z,95755.31
2022-10-01T16:03:55.608Z,95752.47
2022-10-01T16:06:26.968Z,95755.97
2022-10-01T16:09:01.910Z,95760.72
2022-10-01T16:11:32.676Z,95760.47
2022-10-01T16:14:22.900Z,95765.78
2022-10-01T16:16:51.230Z,95760.63
2022-10-01T16:19:29.512Z,95756.94
2022-10-01T16:22:20.738Z,95768.72
2022-10-01T16:24:49.758Z,95776.69
2022-10-01T16:27:19.469Z,95773.22
2022-10-01T16:30:12.865Z,95782.47
2022-10-01T16:32:40.784Z,95788.88
2022-10-01T16:35:21.038Z,95782.81
2022-10-01T16:37:50.031Z,95784.81
2022-10-01T16:40:18.463Z,95783.94
2022-10-01T16:42:46.721Z,95787.31
2022-10-01T16:45:17.658Z,95789.31
2022-10-01T16:47:45.980Z,95799.47
2022-10-01T16:50:16.082Z,95797.50
2022-10-01T16:52:45.004Z,95801.88
2022-10-01T16:55:18.099Z,95797.25
2022-10-01T16:57:45.601Z,95795.72
2022-10-01T17:00:15.532Z,95815.88
2022-10-01T17:02:43.758Z,95813.00
2022-10-01T17:05:18.589Z,95812.63
2022-10-01T17:07:47.705Z,95815.75
2022-10-01T17:10:16.460Z,95815.97
2022-10-01T17:12:44.589Z,95822.38
2022-10-01T17:15:15.616Z,95822.56
2022-10-01T17:17:43.119Z,95834.50
2022-10-01T17:20:11.067Z,95838.25
2022-10-01T17:22:39.191Z,95845.78
2022-10-01T17:25:09.336Z,95833.94
2022-10-01T17:27:36.846Z,95840.56
2022-10-01T17:30:04.762Z,95844.91
2022-10-01T17:32:32.781Z,95851.53
2022-10-01T17:35:00.244Z,95843.25
2022-10-01T17:37:27.765Z,95851.91
2022-10-01T17:39:55.290Z,95853.38
2022-10-01T17:42:24.173Z,95846.50
2022-10-01T17:44:52.316Z,95855.88
2022-10-01T17:47:19.826Z,95856.13
2022-10-01T17:49:47.386Z,95870.00
2022-10-01T17:52:15.108Z,95874.00
2022-10-01T17:54:42.644Z,95877.50
2022-10-01T17:57:10.783Z,95870.91
2022-10-01T17:59:39.765Z,95882.75
2022-10-01T18:02:23.901Z,95893.00
2022-10-01T18:04:55.565Z,95890.13
2022-10-01T18:07:24.029Z,95889.38
2022-10-01T18:09:52.861Z,95895.59
2022-10-01T18:12:20.508Z,95897.91
2022-10-01T18:14:49.732Z,95902.00
2022-10-01T18:17:17.463Z,95904.16
2022-10-01T18:19:53.336Z,95905.72
2022-10-01T18:22:21.694Z,95898.91
2022-10-01T18:24:49.292Z,95900.09
2022-10-01T18:27:16.858Z,95914.69
2022-10-01T18:29:44.438Z,95908.19
2022-10-01T18:32:18.886Z,95907.09
2022-10-01T18:34:50.623Z,95910.84
2022-10-01T18:37:31.019Z,95915.72
2022-10-01T18:40:03.087Z,95919.56
2022-10-01T18:42:42.660Z,95920.28
2022-10-01T18:45:16.830Z,95933.84
2022-10-01T18:48:04.038Z,95923.97
2022-10-01T18:50:41.608Z,95940.75
2022-10-01T18:53:29.968Z,95943.56
2022-10-01T18:56:16.493Z,95947.03
2022-10-01T18:58:57.693Z,95948.81
2022-10-01T19:01:36.212Z,95940.84
2022-10-01T19:04:25.379Z,95943.94
2022-10-01T19:07:07.287Z,95938.78
2022-10-01T19:09:45.001Z,95953.59
2022-10-01T19:12:26.847Z,95958.06
2022-10-01T19:15:12.596Z,95955.47
2022-10-01T19:17:52.760Z,95964.34
2022-10-01T19:20:45.112Z,95962.66
2022-10-01T19:23:29.429Z,95964.81
2022-10-01T19:26:08.747Z,95970.84
2022-10-01T19:28:51.652Z,95979.78
2022-10-01T19:31:25.548Z,95976.28
2022-10-01T19:33:57.651Z,95975.94
2022-10-01T19:36:34.340Z,95988.81
2022-10-01T19:39:09.649Z,95999.63
2022-10-01T19:41:43.125Z,96003.00
2022-10-01T19:44:14.876Z,96007.25
2022-10-01T19:46:45.301Z,96018.00
2022-10-01T19:49:19.173Z,96027.53
2022-10-01T19:51:56.464Z,96036.16
2022-10-01T19:54:28.388Z,96022.75
2022-10-01T19:57:02.320Z,96025.22
2022-10-01T19:59:30.148Z,96028.88
2022-10-01T20:02:03.759Z,96031.72
2022-10-01T20:04:38.013Z,96032.91
2022-10-01T20:07:12.716Z,96038.69
2022-10-01T20:09:45.921Z,96049.94
2022-10-01T20:12:25.247Z,96048.25
2022-10-01T20:15:09.988Z,96055.81
2022-10-01T20:17:50.914Z,96070.63
2022-10-01T20:20:24.258Z,96066.94
2022-10-01T20:23:07.870Z,96091.97
2022-10-01T20:25:44.634Z,96082.19
2022-10-01T20:28:19.907Z,96082.66
2022-10-01T20:30:59.004Z,96086.53
2022-10-01T20:33:35.392Z,96099.25
2022-10-01T20:36:12.726Z,96099.03
2022-10-01T20:38:48.538Z,96099.47
2022-10-01T20:41:19.813Z,96109.03
2022-10-01T20:43:50.068Z,96113.28
2022-10-01T20:46:24.911Z,96118.03
2022-10-01T20:48:57.295Z,96119.78
2022-10-01T20:51:33.552Z,96134.09
2022-10-01T20:54:07.866Z,96143.59
2022-10-01T20:56:41.393Z,96150.41
2022-10-01T20:59:14.635Z,96156.19
2022-10-01T21:01:51.125Z,96152.06
2022-10-01T21:04:24.129Z,96159.91
2022-10-01T21:06:54.958Z,96158.59
2022-10-01T21:09:30.777Z,96157.19
2022-10-01T21:12:04.014Z,96164.50
2022-10-01T21:14:37.525Z,96158.13
2022-10-01T21:17:29.856Z,96168.19
2022-10-01T21:20:11.468Z,96167.88
2022-10-01T21:22:52.690Z,96168.53
2022-10-01T21:25:31.457Z,96168.66
2022-10-01T21:28:24.719Z,96168.81
2022-10-01T21:31:03.559Z,96166.25
2022-10-01T21:33:34.211Z,96176.31
2022-10-01T21:36:07.934Z,96175.31
2022-10-01T21:38:42.092Z,96172.22
2022-10-01T21:41:24.089Z,96177.38
2022-10-01T21:44:11.212Z,96188.25
2022-10-01T21:46:42.646Z,96191.16
2022-10-01T21:49:18.748Z,96187.59
2022-10-01T21:51:59.964Z,96189.16
2022-10-01T21:54:41.412Z,96196.28
2022-10-01T21:57:23.623Z,96194.88
2022-10-01T22:00:07.925Z,96204.03
2022-10-01T22:02:47.425Z,96208.63
2022-10-01T22:05:24.503Z,96206.53
2022-10-01T22:08:01.259Z,96212.59
2022-10-01T22:10:33.907Z,96217.91
2022-10-01T22:13:07.542Z,96223.25
2022-10-01T22:15:40.289Z,96233.84
2022-10-01T22:18:13.067Z,96229.88
2022-10-01T22:20:43.417Z,96238.13
2022-10-01T22:23:13.755Z,96240.50
2022-10-01T22:25:46.712Z,96243.56
2022-10-01T22:28:19.526Z,96241.00
2022-10-01T22:30:50.816Z,96252.63
2022-10-01T22:33:22.863Z,96257.97
2022-10-01T22:35:54.997Z,96261.63
2022-10-01T22:38:26.833Z,96259.34
2022-10-01T22:40:59.587Z,96267.19
2022-10-01T22:43:29.320Z,96274.28
2022-10-01T22:46:12.084Z,96286.25
2022-10-01T22:48:51.983Z,96285.19
2022-10-01T22:51:40.108Z,96281.56
2022-10-01T22:54:25.115Z,96289.56
2022-10-01T22:57:00.139Z,96291.16
2022-10-01T22:59:38.185Z,96310.28
2022-10-01T23:02:12.988Z,96315.94
2022-10-01T23:04:52.798Z,96301.97
2022-10-01T23:07:29.095Z,96315.72
2022-10-01T23:10:05.356Z,96317.53
2022-10-01T23:12:41.854Z,96314.91
2022-10-01T23:15:33.628Z,96316.41
2022-10-01T23:18:11.677Z,96317.13
2022-10-01T23:20:46.924Z,96326.03
2022-10-01T23:23:28.343Z,96327.94
2022-10-01T23:26:13.997Z,96339.84
2022-10-01T23:28:55.065Z,96335.50
2022-10-01T23:31:32.727Z,96333.31
2022-10-01T23:34:11.179Z,96335.44
2022-10-01T23:36:47.273Z,96350.25
2022-10-01T23:39:33.471Z,96344.34
2022-10-01T23:42:09.680Z,96336.75
2022-10-01T23:44:42.860Z,96343.56
2022-10-01T23:47:19.073Z,96346.72
2022-10-01T23:49:52.847Z,96346.94
2022-10-01T23:52:27.151Z,96349.63
2022-10-01T23:55:18.959Z,96358.53
2022-10-01T23:57:49.160Z,96355.91
